South West City, MO (64863)

2:29 PM CST on February 11, 2016 (GMT -0600)
FryeComp -2 Mi/S SWC | | Change Station
CLOSE
Current Station
Personal Weather Station
Location: Gravette, AR
Elevation: 1138 ft
Nearby Weather Stations

Elev 1138 ft 36.48 °N, 94.61 °W | Updated 15 seconds ago

Clear
Clear
54.3 °F
Feels Like 54.3 °F
N
3.0
Wind Variable Wind from NNW
Gusts 7.0 mph

Today
High -- | Low -- °F
--% Chance of Precip.
Yesterday
High -- | Low -- °F
Precip. -- in
Pressure 30.16 in
Visibility 10.0 miles
Clouds Clear
Dew Point 29 °F
Humidity 38%
Rainfall 0.00 in
Snow Depth Not available.
7:11 AM 5:54 PM
Waxing Crescent, 14% visible
METAR KGMJ 112015Z AUTO 00000KT 10SM CLR 12/M03 A3016 RMK AO2
Pressure 30.16 in
Visibility 10.0 miles
Clouds Clear
Dew Point 29 °F
Humidity 38%
Rainfall 0.00 in
Snow Depth Not available.
7:11 AM 5:54 PM
Waxing Crescent, 14% visible
METAR KGMJ 112015Z AUTO 00000KT 10SM CLR 12/M03 A3016 RMK AO2

10-Day Weather Forecast

Almanac

Astronomy

Feb. 11, 2016 Rise Set
Actual Time
Civil Twilight
Nautical Twilight
Astronomical Twilight
Moon
Length of Visible Light
Length of Day
Tomorrow will be .
, % of the Moon is Illuminated

Today's Extremes

State Highs State Lows

Community

WunderPhotos

Upload Photos

1,892,148 photos uploaded!

WunderBlog® & News

Nearby

Air Quality

  Air Quality AQ Index Pollutant
Not available.

Snow Depth

Station Depth Elevation

Earthquake Activity

City Distance Mag. Time & Date
Minimum magnitude displayed is 2.5.

Coastal Water Temperatures

Place Temperature

Stations

Nearby Weather Stations

Station Location Temp. Windchill Dew Point Humidity Wind Precip. Elev Updated Type
                   

Watches & Warnings

There are currently no watches in effect.